sensor_id;sensor_type;location;lat;lon;timestamp;noise_LAeq;noise_LA_min;noise_LA_max;noise_LA01;noise_LA95
66450;Laerm;56829;52.274;4.770;2023-04-24T00:00:00;59.33;48.53;82.06;;
66450;Laerm;56829;52.274;4.770;2023-04-24T00:00:10;57.00;48.65;77.30;;
66450;Laerm;56829;52.274;4.770;2023-04-24T00:00:22;51.42;48.51;62.83;;
66450;Laerm;56829;52.274;4.770;2023-04-24T00:00:33;58.36;48.29;75.77;;
66450;Laerm;56829;52.274;4.770;2023-04-24T00:00:43;51.69;47.73;70.34;;
66450;Laerm;56829;52.274;4.770;2023-04-24T00:00:55;53.92;47.96;74.86;;
66450;Laerm;56829;52.274;4.770;2023-04-24T00:01:10;64.91;48.10;90.52;;
66450;Laerm;56829;52.274;4.770;2023-04-24T00:01:22;51.10;48.24;64.07;;
66450;Laerm;56829;52.274;4.770;2023-04-24T00:01:33;51.39;48.63;66.09;;
66450;Laerm;56829;52.274;4.770;2023-04-24T00:01:44;50.89;48.51;62.41;;
66450;Laerm;56829;52.274;4.770;2023-04-24T00:01:54;50.64;48.04;66.22;;
66450;Laerm;56829;52.274;4.770;2023-04-24T00:02:05;52.27;47.53;70.81;;
66450;Laerm;56829;52.274;4.770;2023-04-24T00:02:16;51.50;47.71;68.17;;
66450;Laerm;56829;52.274;4.770;2023-04-24T00:02:26;49.73;47.69;59.46;;
66450;Laerm;56829;52.274;4.770;2023-04-24T00:02:37;49.30;46.84;57.29;;
66450;Laerm;56829;52.274;4.770;2023-04-24T00:02:50;49.32;47.03;58.19;;
66450;Laerm;56829;52.274;4.770;2023-04-24T00:03:00;53.80;46.61;76.22;;
66450;Laerm;56829;52.274;4.770;2023-04-24T00:03:10;52.60;46.90;74.97;;
66450;Laerm;56829;52.274;4.770;2023-04-24T00:03:21;49.13;46.67;63.20;;
66450;Laerm;56829;52.274;4.770;2023-04-24T00:03:32;49.70;46.64;64.84;;
66450;Laerm;56829;52.274;4.770;2023-04-24T00:03:42;51.10;46.43;70.35;;
66450;Laerm;56829;52.274;4.770;2023-04-24T00:03:53;48.57;45.99;58.60;;
66450;Laerm;56829;52.274;4.770;2023-04-24T00:04:03;48.19;45.91;57.08;;
66450;Laerm;56829;52.274;4.770;2023-04-24T00:04:13;51.48;46.50;73.16;;
66450;Laerm;56829;52.274;4.770;2023-04-24T00:04:26;50.44;45.50;71.13;;
66450;Laerm;56829;52.274;4.770;2023-04-24T00:04:37;52.87;46.35;75.72;;
66450;Laerm;56829;52.274;4.770;2023-04-24T00:04:50;49.33;45.85;69.01;;
66450;Laerm;56829;52.274;4.770;2023-04-24T00:05:00;48.97;46.05;66.01;;
66450;Laerm;56829;52.274;4.770;2023-04-24T00:05:15;48.24;45.85;56.78;;
66450;Laerm;56829;52.274;4.770;2023-04-24T00:05:25;48.58;46.21;59.83;;
66450;Laerm;56829;52.274;4.770;2023-04-24T00:05:35;55.39;46.62;78.31;;
66450;Laerm;56829;52.274;4.770;2023-04-24T00:05:46;53.97;46.52;75.97;;
66450;Laerm;56829;52.274;4.770;2023-04-24T00:05:56;53.15;46.30;76.04;;
66450;Laerm;56829;52.274;4.770;2023-04-24T00:06:07;54.49;46.44;77.78;;
66450;Laerm;56829;52.274;4.770;2023-04-24T00:06:18;54.60;47.09;78.05;;
66450;Laerm;56829;52.274;4.770;2023-04-24T00:06:28;55.85;46.47;79.49;;
66450;Laerm;56829;52.274;4.770;2023-04-24T00:06:43;49.70;46.55;67.75;;
66450;Laerm;56829;52.274;4.770;2023-04-24T00:06:54;55.61;46.33;79.42;;
66450;Laerm;56829;52.274;4.770;2023-04-24T00:07:07;49.74;47.15;57.30;;
66450;Laerm;56829;52.274;4.770;2023-04-24T00:07:17;49.07;46.59;65.15;;
66450;Laerm;56829;52.274;4.770;2023-04-24T00:07:27;48.99;46.62;57.73;;
66450;Laerm;56829;52.274;4.770;2023-04-24T00:07:37;61.26;46.99;85.63;;
66450;Laerm;56829;52.274;4.770;2023-04-24T00:07:48;50.15;47.02;68.92;;
66450;Laerm;56829;52.274;4.770;2023-04-24T00:07:58;49.59;46.50;59.47;;
66450;Laerm;56829;52.274;4.770;2023-04-24T00:08:08;49.42;47.32;54.78;;
66450;Laerm;56829;52.274;4.770;2023-04-24T00:08:18;50.70;47.40;62.36;;
66450;Laerm;56829;52.274;4.770;2023-04-24T00:08:28;50.66;48.15;64.21;;
66450;Laerm;56829;52.274;4.770;2023-04-24T00:08:39;52.12;48.30;69.24;;
66450;Laerm;56829;52.274;4.770;2023-04-24T00:08:49;58.36;47.93;79.72;;
66450;Laerm;56829;52.274;4.770;2023-04-24T00:08:59;51.97;48.13;71.74;;
66450;Laerm;56829;52.274;4.770;2023-04-24T00:09:10;52.91;47.92;71.09;;
66450;Laerm;56829;52.274;4.770;2023-04-24T00:09:20;50.61;47.83;57.23;;
66450;Laerm;56829;52.274;4.770;2023-04-24T00:09:31;50.70;48.67;56.54;;
66450;Laerm;56829;52.274;4.770;2023-04-24T00:09:41;56.92;48.62;80.19;;
66450;Laerm;56829;52.274;4.770;2023-04-24T00:09:51;51.67;49.35;60.78;;
66450;Laerm;56829;52.274;4.770;2023-04-24T00:10:01;51.89;49.19;68.44;;
66450;Laerm;56829;52.274;4.770;2023-04-24T00:10:12;59.12;48.65;80.19;;
66450;Laerm;56829;52.274;4.770;2023-04-24T00:10:22;51.23;48.74;56.84;;
66450;Laerm;56829;52.274;4.770;2023-04-24T00:10:32;52.96;49.59;71.74;;
66450;Laerm;56829;52.274;4.770;2023-04-24T00:10:42;51.53;49.57;55.66;;
66450;Laerm;56829;52.274;4.770;2023-04-24T00:10:52;53.69;49.31;74.88;;
66450;Laerm;56829;52.274;4.770;2023-04-24T00:11:03;55.97;49.52;78.52;;
66450;Laerm;56829;52.274;4.770;2023-04-24T00:11:13;52.00;49.98;55.90;;
66450;Laerm;56829;52.274;4.770;2023-04-24T00:11:23;57.69;50.09;79.48;;
66450;Laerm;56829;52.274;4.770;2023-04-24T00:11:33;66.57;49.44;91.14;;
66450;Laerm;56829;52.274;4.770;2023-04-24T00:11:44;53.47;50.15;69.91;;
66450;Laerm;56829;52.274;4.770;2023-04-24T00:11:54;52.89;50.71;59.30;;
66450;Laerm;56829;52.274;4.770;2023-04-24T00:12:04;55.31;50.36;76.60;;
66450;Laerm;56829;52.274;4.770;2023-04-24T00:12:15;52.31;49.99;64.13;;
66450;Laerm;56829;52.274;4.770;2023-04-24T00:12:25;52.99;50.61;59.25;;
66450;Laerm;56829;52.274;4.770;2023-04-24T00:12:35;55.10;50.21;76.68;;
66450;Laerm;56829;52.274;4.770;2023-04-24T00:12:46;56.71;49.40;76.99;;
66450;Laerm;56829;52.274;4.770;2023-04-24T00:12:56;53.49;50.15;69.81;;
66450;Laerm;56829;52.274;4.770;2023-04-24T00:13:06;53.21;49.96;67.06;;
66450;Laerm;56829;52.274;4.770;2023-04-24T00:13:17;52.58;50.23;63.47;;
66450;Laerm;56829;52.274;4.770;2023-04-24T00:13:27;53.78;50.18;72.83;;
66450;Laerm;56829;52.274;4.770;2023-04-24T00:13:38;52.35;49.91;62.35;;
66450;Laerm;56829;52.274;4.770;2023-04-24T00:13:48;61.77;49.94;85.93;;
66450;Laerm;56829;52.274;4.770;2023-04-24T00:13:58;52.20;50.35;57.19;;
66450;Laerm;56829;52.274;4.770;2023-04-24T00:14:09;55.42;50.11;75.68;;
66450;Laerm;56829;52.274;4.770;2023-04-24T00:14:19;52.56;50.44;65.04;;
66450;Laerm;56829;52.274;4.770;2023-04-24T00:14:30;52.83;50.86;61.18;;
66450;Laerm;56829;52.274;4.770;2023-04-24T00:14:40;54.74;50.67;74.84;;
66450;Laerm;56829;52.274;4.770;2023-04-24T00:14:50;54.41;50.54;72.13;;
66450;Laerm;56829;52.274;4.770;2023-04-24T00:15:01;53.84;51.49;69.20;;
66450;Laerm;56829;52.274;4.770;2023-04-24T00:15:11;65.63;51.68;89.94;;
66450;Laerm;56829;52.274;4.770;2023-04-24T00:15:21;54.25;51.84;63.60;;
66450;Laerm;56829;52.274;4.770;2023-04-24T00:15:32;61.26;51.29;85.10;;
66450;Laerm;56829;52.274;4.770;2023-04-24T00:15:42;54.45;51.53;71.05;;
66450;Laerm;56829;52.274;4.770;2023-04-24T00:15:52;61.43;51.17;82.80;;
66450;Laerm;56829;52.274;4.770;2023-04-24T00:16:02;53.94;50.71;72.02;;
66450;Laerm;56829;52.274;4.770;2023-04-24T00:16:12;58.80;50.07;82.27;;
66450;Laerm;56829;52.274;4.770;2023-04-24T00:16:23;59.45;51.47;72.39;;
66450;Laerm;56829;52.274;4.770;2023-04-24T00:16:33;58.36;49.83;81.69;;
66450;Laerm;56829;52.274;4.770;2023-04-24T00:16:43;51.24;49.43;58.08;;
66450;Laerm;56829;52.274;4.770;2023-04-24T00:16:53;51.12;48.82;56.47;;
66450;Laerm;56829;52.274;4.770;2023-04-24T00:17:03;52.97;49.36;72.06;;
66450;Laerm;56829;52.274;4.770;2023-04-24T00:17:14;58.79;50.65;69.28;;
66450;Laerm;56829;52.274;4.770;2023-04-24T00:17:24;54.47;49.74;73.19;;
66450;Laerm;56829;52.274;4.770;2023-04-24T00:17:34;54.16;49.51;72.10;;
66450;Laerm;56829;52.274;4.770;2023-04-24T00:17:44;61.43;49.58;84.34;;
66450;Laerm;56829;52.274;4.770;2023-04-24T00:17:55;51.48;49.37;60.46;;
66450;Laerm;56829;52.274;4.770;2023-04-24T00:18:05;52.41;48.51;69.73;;
66450;Laerm;56829;52.274;4.770;2023-04-24T00:18:15;51.23;48.06;64.91;;
66450;Laerm;56829;52.274;4.770;2023-04-24T00:18:25;50.55;48.97;59.63;;
66450;Laerm;56829;52.274;4.770;2023-04-24T00:18:35;51.63;48.35;69.17;;
66450;Laerm;56829;52.274;4.770;2023-04-24T00:18:46;53.49;48.24;74.16;;
66450;Laerm;56829;52.274;4.770;2023-04-24T00:18:57;54.66;48.71;74.81;;
66450;Laerm;56829;52.274;4.770;2023-04-24T00:19:08;53.72;48.21;74.87;;
66450;Laerm;56829;52.274;4.770;2023-04-24T00:19:18;53.98;48.39;75.38;;
66450;Laerm;56829;52.274;4.770;2023-04-24T00:19:31;51.23;47.93;68.40;;
66450;Laerm;56829;52.274;4.770;2023-04-24T00:19:41;50.51;47.89;66.96;;
66450;Laerm;56829;52.274;4.770;2023-04-24T00:19:51;53.87;48.04;74.19;;
66450;Laerm;56829;52.274;4.770;2023-04-24T00:20:08;53.08;47.79;73.02;;
66450;Laerm;56829;52.274;4.770;2023-04-24T00:20:20;52.30;47.44;72.88;;
66450;Laerm;56829;52.274;4.770;2023-04-24T00:20:31;50.00;47.44;67.16;;
66450;Laerm;56829;52.274;4.770;2023-04-24T00:20:45;51.90;47.89;72.23;;
66450;Laerm;56829;52.274;4.770;2023-04-24T00:20:56;52.48;47.56;70.29;;
66450;Laerm;56829;52.274;4.770;2023-04-24T00:21:06;55.74;48.17;76.76;;
66450;Laerm;56829;52.274;4.770;2023-04-24T00:21:17;50.71;47.95;65.76;;
66450;Laerm;56829;52.274;4.770;2023-04-24T00:21:27;54.12;47.80;76.74;;
66450;Laerm;56829;52.274;4.770;2023-04-24T00:21:38;53.78;47.65;72.45;;
66450;Laerm;56829;52.274;4.770;2023-04-24T00:21:48;53.80;48.31;75.37;;
66450;Laerm;56829;52.274;4.770;2023-04-24T00:22:01;55.09;48.40;74.29;;
66450;Laerm;56829;52.274;4.770;2023-04-24T00:22:12;50.85;47.93;65.83;;
66450;Laerm;56829;52.274;4.770;2023-04-24T00:22:25;52.72;48.36;71.16;;
66450;Laerm;56829;52.274;4.770;2023-04-24T00:22:36;55.48;48.28;75.37;;
66450;Laerm;56829;52.274;4.770;2023-04-24T00:22:46;53.19;49.23;69.67;;
66450;Laerm;56829;52.274;4.770;2023-04-24T00:22:56;55.18;48.51;77.85;;
66450;Laerm;56829;52.274;4.770;2023-04-24T00:23:06;51.04;48.44;64.01;;
66450;Laerm;56829;52.274;4.770;2023-04-24T00:23:17;50.21;48.29;58.44;;
66450;Laerm;56829;52.274;4.770;2023-04-24T00:23:27;52.97;48.03;74.15;;
66450;Laerm;56829;52.274;4.770;2023-04-24T00:23:37;51.50;48.07;69.08;;
66450;Laerm;56829;52.274;4.770;2023-04-24T00:23:47;54.23;48.41;76.18;;
66450;Laerm;56829;52.274;4.770;2023-04-24T00:23:57;50.96;48.45;64.34;;
66450;Laerm;56829;52.274;4.770;2023-04-24T00:24:08;59.19;48.70;83.10;;
66450;Laerm;56829;52.274;4.770;2023-04-24T00:24:21;52.87;49.87;67.07;;
66450;Laerm;56829;52.274;4.770;2023-04-24T00:24:31;52.78;50.44;65.61;;
66450;Laerm;56829;52.274;4.770;2023-04-24T00:24:41;52.64;50.45;65.15;;
66450;Laerm;56829;52.274;4.770;2023-04-24T00:24:52;53.57;50.02;68.80;;
66450;Laerm;56829;52.274;4.770;2023-04-24T00:25:02;52.94;50.81;59.12;;
66450;Laerm;56829;52.274;4.770;2023-04-24T00:25:12;60.81;50.91;84.61;;
66450;Laerm;56829;52.274;4.770;2023-04-24T00:25:22;60.46;51.59;83.06;;
66450;Laerm;56829;52.274;4.770;2023-04-24T00:25:32;55.68;51.81;72.72;;
66450;Laerm;56829;52.274;4.770;2023-04-24T00:25:43;55.05;51.88;73.81;;
66450;Laerm;56829;52.274;4.770;2023-04-24T00:25:53;56.43;51.30;76.27;;
66450;Laerm;56829;52.274;4.770;2023-04-24T00:26:03;53.84;51.46;65.63;;
66450;Laerm;56829;52.274;4.770;2023-04-24T00:26:13;56.16;51.18;76.30;;
66450;Laerm;56829;52.274;4.770;2023-04-24T00:26:24;53.58;50.98;66.75;;
66450;Laerm;56829;52.274;4.770;2023-04-24T00:26:34;53.49;51.10;70.24;;
66450;Laerm;56829;52.274;4.770;2023-04-24T00:26:44;53.17;50.10;64.70;;
66450;Laerm;56829;52.274;4.770;2023-04-24T00:26:54;53.68;50.85;70.94;;
66450;Laerm;56829;52.274;4.770;2023-04-24T00:27:04;52.96;51.27;60.12;;
66450;Laerm;56829;52.274;4.770;2023-04-24T00:27:15;63.59;51.05;85.27;;
66450;Laerm;56829;52.274;4.770;2023-04-24T00:27:25;53.93;51.27;67.27;;
66450;Laerm;56829;52.274;4.770;2023-04-24T00:27:35;55.85;51.99;74.48;;
66450;Laerm;56829;52.274;4.770;2023-04-24T00:27:47;55.30;52.04;72.65;;
66450;Laerm;56829;52.274;4.770;2023-04-24T00:27:57;54.46;52.54;58.30;;
66450;Laerm;56829;52.274;4.770;2023-04-24T00:28:07;55.30;52.77;65.27;;
66450;Laerm;56829;52.274;4.770;2023-04-24T00:28:17;59.69;52.87;82.55;;
66450;Laerm;56829;52.274;4.770;2023-04-24T00:28:27;55.50;52.59;68.09;;
66450;Laerm;56829;52.274;4.770;2023-04-24T00:28:37;55.71;53.26;71.23;;
66450;Laerm;56829;52.274;4.770;2023-04-24T00:28:48;59.43;53.94;76.64;;
66450;Laerm;56829;52.274;4.770;2023-04-24T00:28:58;57.62;53.49;78.27;;
66450;Laerm;56829;52.274;4.770;2023-04-24T00:29:08;67.90;53.69;92.15;;
66450;Laerm;56829;52.274;4.770;2023-04-24T00:29:18;55.36;53.38;60.57;;
66450;Laerm;56829;52.274;4.770;2023-04-24T00:29:28;55.16;53.33;61.83;;
66450;Laerm;56829;52.274;4.770;2023-04-24T00:29:39;61.21;53.58;82.92;;
66450;Laerm;56829;52.274;4.770;2023-04-24T00:29:49;63.20;53.33;85.66;;
66450;Laerm;56829;52.274;4.770;2023-04-24T00:29:59;55.37;52.99;61.90;;
66450;Laerm;56829;52.274;4.770;2023-04-24T00:30:09;55.29;53.22;62.65;;
66450;Laerm;56829;52.274;4.770;2023-04-24T00:30:20;57.41;53.08;78.14;;
66450;Laerm;56829;52.274;4.770;2023-04-24T00:30:30;55.80;53.50;69.46;;
66450;Laerm;56829;52.274;4.770;2023-04-24T00:30:40;56.17;53.80;63.84;;
66450;Laerm;56829;52.274;4.770;2023-04-24T00:30:50;56.23;54.31;62.80;;
66450;Laerm;56829;52.274;4.770;2023-04-24T00:31:01;55.93;53.86;64.41;;
66450;Laerm;56829;52.274;4.770;2023-04-24T00:31:11;56.31;53.87;70.79;;
66450;Laerm;56829;52.274;4.770;2023-04-24T00:31:22;64.17;53.69;88.04;;
66450;Laerm;56829;52.274;4.770;2023-04-24T00:31:32;56.21;53.87;69.20;;
66450;Laerm;56829;52.274;4.770;2023-04-24T00:31:44;61.65;53.78;85.84;;
66450;Laerm;56829;52.274;4.770;2023-04-24T00:31:55;56.30;54.28;68.23;;
66450;Laerm;56829;52.274;4.770;2023-04-24T00:32:05;63.73;54.26;85.50;;
66450;Laerm;56829;52.274;4.770;2023-04-24T00:32:15;61.22;54.59;83.80;;
66450;Laerm;56829;52.274;4.770;2023-04-24T00:32:26;56.95;55.11;60.75;;
66450;Laerm;56829;52.274;4.770;2023-04-24T00:32:36;56.43;54.66;63.35;;
66450;Laerm;56829;52.274;4.770;2023-04-24T00:32:46;56.47;54.59;64.38;;
66450;Laerm;56829;52.274;4.770;2023-04-24T00:32:56;58.50;54.91;77.38;;
66450;Laerm;56829;52.274;4.770;2023-04-24T00:33:07;63.86;54.55;85.07;;
66450;Laerm;56829;52.274;4.770;2023-04-24T00:33:17;57.01;54.81;61.18;;
66450;Laerm;56829;52.274;4.770;2023-04-24T00:33:27;63.00;55.53;85.92;;
66450;Laerm;56829;52.274;4.770;2023-04-24T00:33:37;65.81;55.73;87.92;;
66450;Laerm;56829;52.274;4.770;2023-04-24T00:33:48;60.83;55.49;82.98;;
66450;Laerm;56829;52.274;4.770;2023-04-24T00:33:58;59.06;55.41;78.66;;
66450;Laerm;56829;52.274;4.770;2023-04-24T00:34:08;57.71;55.14;70.99;;
66450;Laerm;56829;52.274;4.770;2023-04-24T00:34:18;57.79;55.23;71.24;;
66450;Laerm;56829;52.274;4.770;2023-04-24T00:34:29;57.21;55.13;66.60;;
66450;Laerm;56829;52.274;4.770;2023-04-24T00:34:39;59.43;54.81;80.06;;
66450;Laerm;56829;52.274;4.770;2023-04-24T00:34:49;58.34;54.32;77.94;;
66450;Laerm;56829;52.274;4.770;2023-04-24T00:35:00;59.11;55.44;71.25;;
66450;Laerm;56829;52.274;4.770;2023-04-24T00:35:10;61.71;55.45;81.94;;
66450;Laerm;56829;52.274;4.770;2023-04-24T00:35:21;58.62;55.16;77.82;;
66450;Laerm;56829;52.274;4.770;2023-04-24T00:35:31;61.06;55.32;83.26;;
66450;Laerm;56829;52.274;4.770;2023-04-24T00:35:41;57.79;55.33;72.04;;
66450;Laerm;56829;52.274;4.770;2023-04-24T00:35:51;56.90;54.65;63.42;;
66450;Laerm;56829;52.274;4.770;2023-04-24T00:36:01;66.88;54.89;91.04;;
66450;Laerm;56829;52.274;4.770;2023-04-24T00:36:12;58.97;55.17;78.99;;
66450;Laerm;56829;52.274;4.770;2023-04-24T00:36:22;58.96;54.99;76.12;;
66450;Laerm;56829;52.274;4.770;2023-04-24T00:36:32;61.28;55.71;82.95;;
66450;Laerm;56829;52.274;4.770;2023-04-24T00:36:42;72.36;55.24;96.13;;
66450;Laerm;56829;52.274;4.770;2023-04-24T00:36:52;58.51;55.24;76.43;;
66450;Laerm;56829;52.274;4.770;2023-04-24T00:37:03;57.05;54.76;69.68;;
66450;Laerm;56829;52.274;4.770;2023-04-24T00:37:13;57.00;54.51;66.82;;
66450;Laerm;56829;52.274;4.770;2023-04-24T00:37:23;56.96;54.64;70.30;;
66450;Laerm;56829;52.274;4.770;2023-04-24T00:37:33;56.54;54.50;60.64;;
66450;Laerm;56829;52.274;4.770;2023-04-24T00:37:43;57.26;54.14;73.01;;
66450;Laerm;56829;52.274;4.770;2023-04-24T00:37:54;60.36;53.96;80.75;;
66450;Laerm;56829;52.274;4.770;2023-04-24T00:38:04;63.46;54.72;84.10;;
66450;Laerm;56829;52.274;4.770;2023-04-24T00:38:15;60.73;54.87;79.40;;
66450;Laerm;56829;52.274;4.770;2023-04-24T00:38:25;59.65;53.94;81.41;;
66450;Laerm;56829;52.274;4.770;2023-04-24T00:38:35;56.35;53.66;62.07;;
66450;Laerm;56829;52.274;4.770;2023-04-24T00:38:45;56.62;54.22;71.95;;
66450;Laerm;56829;52.274;4.770;2023-04-24T00:38:56;55.86;53.77;65.57;;
66450;Laerm;56829;52.274;4.770;2023-04-24T00:39:06;56.01;53.77;60.78;;
66450;Laerm;56829;52.274;4.770;2023-04-24T00:39:19;55.64;53.70;63.94;;
66450;Laerm;56829;52.274;4.770;2023-04-24T00:39:29;67.67;53.99;91.88;;
66450;Laerm;56829;52.274;4.770;2023-04-24T00:39:39;62.18;53.99;84.46;;
66450;Laerm;56829;52.274;4.770;2023-04-24T00:39:49;55.75;53.52;65.23;;
66450;Laerm;56829;52.274;4.770;2023-04-24T00:39:59;60.18;53.58;83.07;;
66450;Laerm;56829;52.274;4.770;2023-04-24T00:40:10;56.16;53.85;68.06;;
66450;Laerm;56829;52.274;4.770;2023-04-24T00:40:20;56.08;53.97;66.71;;
66450;Laerm;56829;52.274;4.770;2023-04-24T00:40:30;59.54;53.55;81.66;;
66450;Laerm;56829;52.274;4.770;2023-04-24T00:40:41;64.53;53.55;87.46;;
66450;Laerm;56829;52.274;4.770;2023-04-24T00:40:51;55.96;53.18;70.23;;
66450;Laerm;56829;52.274;4.770;2023-04-24T00:41:01;56.47;53.11;74.01;;
66450;Laerm;56829;52.274;4.770;2023-04-24T00:41:11;58.25;53.39;79.00;;
66450;Laerm;56829;52.274;4.770;2023-04-24T00:41:22;55.41;53.03;60.09;;
66450;Laerm;56829;52.274;4.770;2023-04-24T00:41:32;56.66;53.14;75.44;;
66450;Laerm;56829;52.274;4.770;2023-04-24T00:41:43;57.52;53.21;77.56;;
66450;Laerm;56829;52.274;4.770;2023-04-24T00:41:53;67.40;53.41;91.78;;
66450;Laerm;56829;52.274;4.770;2023-04-24T00:42:03;55.02;52.87;60.00;;
66450;Laerm;56829;52.274;4.770;2023-04-24T00:42:16;63.07;53.04;87.86;;
66450;Laerm;56829;52.274;4.770;2023-04-24T00:42:26;55.85;52.90;73.37;;
66450;Laerm;56829;52.274;4.770;2023-04-24T00:42:36;55.21;52.28;66.47;;
66450;Laerm;56829;52.274;4.770;2023-04-24T00:42:47;62.73;52.88;86.14;;
66450;Laerm;56829;52.274;4.770;2023-04-24T00:42:57;55.80;52.07;73.51;;
66450;Laerm;56829;52.274;4.770;2023-04-24T00:43:07;55.55;52.43;71.46;;
66450;Laerm;56829;52.274;4.770;2023-04-24T00:43:18;56.48;52.39;75.24;;
66450;Laerm;56829;52.274;4.770;2023-04-24T00:43:28;65.21;52.74;89.29;;
66450;Laerm;56829;52.274;4.770;2023-04-24T00:43:38;55.22;52.32;65.15;;
66450;Laerm;56829;52.274;4.770;2023-04-24T00:43:49;54.11;51.63;64.48;;
66450;Laerm;56829;52.274;4.770;2023-04-24T00:43:59;53.80;51.64;62.09;;
66450;Laerm;56829;52.274;4.770;2023-04-24T00:44:09;54.75;52.19;63.91;;
66450;Laerm;56829;52.274;4.770;2023-04-24T00:44:19;56.52;52.20;76.51;;
66450;Laerm;56829;52.274;4.770;2023-04-24T00:44:30;54.34;52.31;60.31;;
66450;Laerm;56829;52.274;4.770;2023-04-24T00:44:40;54.10;51.88;62.34;;
66450;Laerm;56829;52.274;4.770;2023-04-24T00:44:50;56.67;52.09;77.70;;
66450;Laerm;56829;52.274;4.770;2023-04-24T00:45:01;56.51;52.37;73.95;;
66450;Laerm;56829;52.274;4.770;2023-04-24T00:45:13;53.70;51.63;57.47;;
66450;Laerm;56829;52.274;4.770;2023-04-24T00:45:23;54.65;51.59;71.23;;
66450;Laerm;56829;52.274;4.770;2023-04-24T00:45:33;54.21;51.73;67.14;;
66450;Laerm;56829;52.274;4.770;2023-04-24T00:45:43;54.16;51.91;65.99;;
66450;Laerm;56829;52.274;4.770;2023-04-24T00:45:53;53.67;50.95;67.57;;
66450;Laerm;56829;52.274;4.770;2023-04-24T00:46:05;64.80;51.55;89.20;;
66450;Laerm;56829;52.274;4.770;2023-04-24T00:46:15;60.50;50.91;79.69;;
66450;Laerm;56829;52.274;4.770;2023-04-24T00:46:26;53.10;50.92;60.30;;
66450;Laerm;56829;52.274;4.770;2023-04-24T00:46:36;53.34;50.67;67.26;;
66450;Laerm;56829;52.274;4.770;2023-04-24T00:46:46;53.09;50.80;66.04;;
66450;Laerm;56829;52.274;4.770;2023-04-24T00:47:01;56.36;50.70;79.85;;
66450;Laerm;56829;52.274;4.770;2023-04-24T00:47:11;53.26;50.84;60.66;;
66450;Laerm;56829;52.274;4.770;2023-04-24T00:47:22;54.16;51.22;63.84;;
66450;Laerm;56829;52.274;4.770;2023-04-24T00:47:33;62.88;52.18;85.32;;
66450;Laerm;56829;52.274;4.770;2023-04-24T00:47:43;58.17;50.59;80.83;;
66450;Laerm;56829;52.274;4.770;2023-04-24T00:47:55;53.88;49.72;74.39;;
66450;Laerm;56829;52.274;4.770;2023-04-24T00:48:05;52.83;50.24;58.83;;
66450;Laerm;56829;52.274;4.770;2023-04-24T00:48:16;52.91;50.67;62.25;;
66450;Laerm;56829;52.274;4.770;2023-04-24T00:48:29;53.53;50.68;64.04;;
66450;Laerm;56829;52.274;4.770;2023-04-24T00:48:40;56.12;49.70;76.55;;
66450;Laerm;56829;52.274;4.770;2023-04-24T00:48:50;55.34;49.23;77.60;;
66450;Laerm;56829;52.274;4.770;2023-04-24T00:49:01;52.36;49.54;69.83;;
66450;Laerm;56829;52.274;4.770;2023-04-24T00:49:12;51.81;48.99;58.23;;
66450;Laerm;56829;52.274;4.770;2023-04-24T00:49:23;53.74;49.59;74.71;;
66450;Laerm;56829;52.274;4.770;2023-04-24T00:49:33;55.19;49.54;77.43;;
66450;Laerm;56829;52.274;4.770;2023-04-24T00:49:43;53.46;49.27;70.56;;
66450;Laerm;56829;52.274;4.770;2023-04-24T00:49:54;51.59;49.53;62.95;;
66450;Laerm;56829;52.274;4.770;2023-04-24T00:50:05;59.31;49.08;82.73;;
66450;Laerm;56829;52.274;4.770;2023-04-24T00:50:15;54.22;48.93;75.73;;
66450;Laerm;56829;52.274;4.770;2023-04-24T00:50:26;50.87;48.30;57.53;;
66450;Laerm;56829;52.274;4.770;2023-04-24T00:50:36;51.08;48.22;66.62;;
66450;Laerm;56829;52.274;4.770;2023-04-24T00:50:47;50.85;48.58;61.88;;
66450;Laerm;56829;52.274;4.770;2023-04-24T00:50:58;51.06;48.66;61.97;;
66450;Laerm;56829;52.274;4.770;2023-04-24T00:51:08;50.34;48.24;54.06;;
66450;Laerm;56829;52.274;4.770;2023-04-24T00:51:18;51.85;48.29;68.54;;
66450;Laerm;56829;52.274;4.770;2023-04-24T00:51:29;54.09;48.11;75.22;;
66450;Laerm;56829;52.274;4.770;2023-04-24T00:51:43;51.04;48.48;60.15;;
66450;Laerm;56829;52.274;4.770;2023-04-24T00:51:55;51.37;47.82;68.90;;
66450;Laerm;56829;52.274;4.770;2023-04-24T00:52:06;51.05;48.48;60.27;;
66450;Laerm;56829;52.274;4.770;2023-04-24T00:52:18;49.64;47.30;54.94;;
66450;Laerm;56829;52.274;4.770;2023-04-24T00:52:28;50.31;47.68;63.68;;
66450;Laerm;56829;52.274;4.770;2023-04-24T00:52:41;55.76;47.82;79.92;;
66450;Laerm;56829;52.274;4.770;2023-04-24T00:52:51;50.18;47.85;59.93;;
66450;Laerm;56829;52.274;4.770;2023-04-24T00:53:01;52.68;49.12;60.15;;
66450;Laerm;56829;52.274;4.770;2023-04-24T00:53:11;54.46;48.40;73.93;;
66450;Laerm;56829;52.274;4.770;2023-04-24T00:53:22;50.68;48.59;59.98;;
66450;Laerm;56829;52.274;4.770;2023-04-24T00:53:32;55.81;48.29;76.87;;
66450;Laerm;56829;52.274;4.770;2023-04-24T00:53:42;51.48;48.91;61.80;;
66450;Laerm;56829;52.274;4.770;2023-04-24T00:53:53;51.25;48.57;56.23;;
66450;Laerm;56829;52.274;4.770;2023-04-24T00:54:03;51.87;48.78;65.03;;
66450;Laerm;56829;52.274;4.770;2023-04-24T00:54:13;54.05;48.61;75.36;;
66450;Laerm;56829;52.274;4.770;2023-04-24T00:54:23;50.83;48.63;56.88;;
66450;Laerm;56829;52.274;4.770;2023-04-24T00:54:34;52.50;48.26;69.18;;
66450;Laerm;56829;52.274;4.770;2023-04-24T00:54:44;51.26;48.29;64.71;;
66450;Laerm;56829;52.274;4.770;2023-04-24T00:54:55;49.72;47.79;55.45;;
66450;Laerm;56829;52.274;4.770;2023-04-24T00:55:05;53.99;47.14;76.66;;
66450;Laerm;56829;52.274;4.770;2023-04-24T00:55:15;49.40;46.89;57.24;;
66450;Laerm;56829;52.274;4.770;2023-04-24T00:55:26;49.88;47.04;66.43;;
66450;Laerm;56829;52.274;4.770;2023-04-24T00:55:36;48.93;46.40;59.31;;
66450;Laerm;56829;52.274;4.770;2023-04-24T00:55:47;59.83;47.00;81.98;;
66450;Laerm;56829;52.274;4.770;2023-04-24T00:55:57;50.59;47.58;63.00;;
66450;Laerm;56829;52.274;4.770;2023-04-24T00:56:07;56.86;49.78;62.20;;
66450;Laerm;56829;52.274;4.770;2023-04-24T00:56:18;52.59;48.60;58.85;;
66450;Laerm;56829;52.274;4.770;2023-04-24T00:56:28;50.91;48.27;66.37;;
66450;Laerm;56829;52.274;4.770;2023-04-24T00:56:40;50.77;48.13;63.55;;
66450;Laerm;56829;52.274;4.770;2023-04-24T00:56:51;51.86;47.41;72.92;;
66450;Laerm;56829;52.274;4.770;2023-04-24T00:57:04;50.57;46.66;68.43;;
66450;Laerm;56829;52.274;4.770;2023-04-24T00:57:15;49.47;46.82;59.69;;
66450;Laerm;56829;52.274;4.770;2023-04-24T00:57:25;49.25;46.83;54.37;;
66450;Laerm;56829;52.274;4.770;2023-04-24T00:57:36;49.78;47.24;64.19;;
66450;Laerm;56829;52.274;4.770;2023-04-24T00:57:47;52.83;47.40;74.74;;
66450;Laerm;56829;52.274;4.770;2023-04-24T00:57:58;50.94;47.41;67.78;;
66450;Laerm;56829;52.274;4.770;2023-04-24T00:58:09;51.08;48.05;64.68;;
66450;Laerm;56829;52.274;4.770;2023-04-24T00:58:19;50.16;47.81;55.22;;
66450;Laerm;56829;52.274;4.770;2023-04-24T00:58:29;50.48;48.17;59.11;;
66450;Laerm;56829;52.274;4.770;2023-04-24T00:58:41;51.33;47.73;69.41;;
66450;Laerm;56829;52.274;4.770;2023-04-24T00:58:51;50.36;48.49;54.59;;
66450;Laerm;56829;52.274;4.770;2023-04-24T00:59:02;51.51;48.90;63.45;;
66450;Laerm;56829;52.274;4.770;2023-04-24T00:59:12;51.73;49.41;57.13;;